sensor_id;sensor_type;location;lat;lon;timestamp;temperature;humidity
78463;SHT31;67756;51.982;5.648;2024-01-07T00:00:24;6.5;62.0
78463;SHT31;67756;51.982;5.648;2024-01-07T00:02:53;6.4;62.5
78463;SHT31;67756;51.982;5.648;2024-01-07T00:05:21;6.4;61.8
78463;SHT31;67756;51.982;5.648;2024-01-07T00:07:50;6.4;62.4
78463;SHT31;67756;51.982;5.648;2024-01-07T00:10:18;6.4;62.8
78463;SHT31;67756;51.982;5.648;2024-01-07T00:12:47;6.4;62.4
78463;SHT31;67756;51.982;5.648;2024-01-07T00:15:19;6.4;62.5
78463;SHT31;67756;51.982;5.648;2024-01-07T00:17:47;6.4;62.4
78463;SHT31;67756;51.982;5.648;2024-01-07T00:20:16;6.4;63.0
78463;SHT31;67756;51.982;5.648;2024-01-07T00:22:44;6.4;62.6
78463;SHT31;67756;51.982;5.648;2024-01-07T00:25:13;6.4;62.2
78463;SHT31;67756;51.982;5.648;2024-01-07T00:27:42;6.4;62.2
78463;SHT31;67756;51.982;5.648;2024-01-07T00:30:11;6.4;62.6
78463;SHT31;67756;51.982;5.648;2024-01-07T00:32:40;6.3;63.2
78463;SHT31;67756;51.982;5.648;2024-01-07T00:35:08;6.4;63.4
78463;SHT31;67756;51.982;5.648;2024-01-07T00:37:37;6.4;63.4
78463;SHT31;67756;51.982;5.648;2024-01-07T00:40:07;6.4;62.6
78463;SHT31;67756;51.982;5.648;2024-01-07T00:42:36;6.4;62.2
78463;SHT31;67756;51.982;5.648;2024-01-07T00:45:05;6.4;63.0
78463;SHT31;67756;51.982;5.648;2024-01-07T00:47:35;6.3;62.6
78463;SHT31;67756;51.982;5.648;2024-01-07T00:50:04;6.3;63.5
78463;SHT31;67756;51.982;5.648;2024-01-07T00:52:33;6.3;63.8
78463;SHT31;67756;51.982;5.648;2024-01-07T00:55:04;6.3;63.7
78463;SHT31;67756;51.982;5.648;2024-01-07T00:57:32;6.2;63.9
78463;SHT31;67756;51.982;5.648;2024-01-07T01:00:08;6.2;63.9
78463;SHT31;67756;51.982;5.648;2024-01-07T01:02:39;6.2;64.5
78463;SHT31;67756;51.982;5.648;2024-01-07T01:05:08;6.2;64.7
78463;SHT31;67756;51.982;5.648;2024-01-07T01:07:37;6.2;64.2
78463;SHT31;67756;51.982;5.648;2024-01-07T01:10:06;6.2;64.1
78463;SHT31;67756;51.982;5.648;2024-01-07T01:12:35;6.2;64.5
78463;SHT31;67756;51.982;5.648;2024-01-07T01:15:05;6.1;64.5
78463;SHT31;67756;51.982;5.648;2024-01-07T01:17:33;6.1;64.2
78463;SHT31;67756;51.982;5.648;2024-01-07T01:20:02;6.1;64.6
78463;SHT31;67756;51.982;5.648;2024-01-07T01:22:31;6.1;65.3
78463;SHT31;67756;51.982;5.648;2024-01-07T01:24:59;6.0;64.2
78463;SHT31;67756;51.982;5.648;2024-01-07T01:27:29;6.0;64.7
78463;SHT31;67756;51.982;5.648;2024-01-07T01:29:58;6.0;65.2
78463;SHT31;67756;51.982;5.648;2024-01-07T01:32:26;6.1;65.0
78463;SHT31;67756;51.982;5.648;2024-01-07T01:34:55;6.1;64.8
78463;SHT31;67756;51.982;5.648;2024-01-07T01:37:25;6.1;64.2
78463;SHT31;67756;51.982;5.648;2024-01-07T01:39:57;6.1;64.3
78463;SHT31;67756;51.982;5.648;2024-01-07T01:42:26;6.1;64.6
78463;SHT31;67756;51.982;5.648;2024-01-07T01:44:55;6.1;64.4
78463;SHT31;67756;51.982;5.648;2024-01-07T01:47:26;6.1;64.1
78463;SHT31;67756;51.982;5.648;2024-01-07T01:49:55;6.1;64.0
78463;SHT31;67756;51.982;5.648;2024-01-07T01:52:24;6.1;64.2
78463;SHT31;67756;51.982;5.648;2024-01-07T01:54:54;6.1;63.9
78463;SHT31;67756;51.982;5.648;2024-01-07T01:57:25;6.1;64.5
78463;SHT31;67756;51.982;5.648;2024-01-07T01:59:57;6.1;64.1
78463;SHT31;67756;51.982;5.648;2024-01-07T02:02:30;6.1;64.2
78463;SHT31;67756;51.982;5.648;2024-01-07T02:05:05;6.2;64.5
78463;SHT31;67756;51.982;5.648;2024-01-07T02:07:38;6.3;64.0
78463;SHT31;67756;51.982;5.648;2024-01-07T02:10:12;6.4;63.3
78463;SHT31;67756;51.982;5.648;2024-01-07T02:12:40;6.5;63.1
78463;SHT31;67756;51.982;5.648;2024-01-07T02:15:12;6.6;63.3
78463;SHT31;67756;51.982;5.648;2024-01-07T02:17:43;6.6;62.5
78463;SHT31;67756;51.982;5.648;2024-01-07T02:20:12;6.7;61.6
78463;SHT31;67756;51.982;5.648;2024-01-07T02:22:40;6.7;61.6
78463;SHT31;67756;51.982;5.648;2024-01-07T02:25:09;6.7;60.9
78463;SHT31;67756;51.982;5.648;2024-01-07T02:27:38;6.6;61.4
78463;SHT31;67756;51.982;5.648;2024-01-07T02:30:07;6.5;61.7
78463;SHT31;67756;51.982;5.648;2024-01-07T02:32:36;6.4;62.6
78463;SHT31;67756;51.982;5.648;2024-01-07T02:35:08;6.3;62.1
78463;SHT31;67756;51.982;5.648;2024-01-07T02:37:36;6.2;62.9
78463;SHT31;67756;51.982;5.648;2024-01-07T02:40:06;6.1;63.4
78463;SHT31;67756;51.982;5.648;2024-01-07T02:42:35;6.0;63.8
78463;SHT31;67756;51.982;5.648;2024-01-07T02:45:04;6.0;64.1
78463;SHT31;67756;51.982;5.648;2024-01-07T02:47:33;5.9;64.0
78463;SHT31;67756;51.982;5.648;2024-01-07T02:50:02;5.9;64.9
78463;SHT31;67756;51.982;5.648;2024-01-07T02:52:30;5.9;65.1
78463;SHT31;67756;51.982;5.648;2024-01-07T02:54:59;5.9;65.4
78463;SHT31;67756;51.982;5.648;2024-01-07T02:57:28;5.8;65.6
78463;SHT31;67756;51.982;5.648;2024-01-07T02:59:57;5.8;65.8
78463;SHT31;67756;51.982;5.648;2024-01-07T03:02:26;5.8;65.2
78463;SHT31;67756;51.982;5.648;2024-01-07T03:04:54;5.8;65.6
78463;SHT31;67756;51.982;5.648;2024-01-07T03:07:23;5.8;65.2
78463;SHT31;67756;51.982;5.648;2024-01-07T03:09:52;5.8;65.4
78463;SHT31;67756;51.982;5.648;2024-01-07T03:12:20;5.9;65.7
78463;SHT31;67756;51.982;5.648;2024-01-07T03:14:49;5.9;66.2
78463;SHT31;67756;51.982;5.648;2024-01-07T03:17:19;6.0;65.7
78463;SHT31;67756;51.982;5.648;2024-01-07T03:19:49;6.1;65.3
78463;SHT31;67756;51.982;5.648;2024-01-07T03:22:17;6.1;64.7
78463;SHT31;67756;51.982;5.648;2024-01-07T03:24:46;6.1;64.1
78463;SHT31;67756;51.982;5.648;2024-01-07T03:27:15;6.1;64.7
78463;SHT31;67756;51.982;5.648;2024-01-07T03:29:46;6.0;64.6
78463;SHT31;67756;51.982;5.648;2024-01-07T03:32:14;6.0;64.3
78463;SHT31;67756;51.982;5.648;2024-01-07T03:34:44;6.0;64.1
78463;SHT31;67756;51.982;5.648;2024-01-07T03:37:12;5.9;64.2
78463;SHT31;67756;51.982;5.648;2024-01-07T03:39:41;5.8;64.7
78463;SHT31;67756;51.982;5.648;2024-01-07T03:42:10;5.8;64.6
78463;SHT31;67756;51.982;5.648;2024-01-07T03:44:39;5.8;65.3
78463;SHT31;67756;51.982;5.648;2024-01-07T03:47:10;5.7;65.4
78463;SHT31;67756;51.982;5.648;2024-01-07T03:49:38;5.7;64.7
78463;SHT31;67756;51.982;5.648;2024-01-07T03:52:08;5.6;64.7
78463;SHT31;67756;51.982;5.648;2024-01-07T03:54:37;5.6;65.1
78463;SHT31;67756;51.982;5.648;2024-01-07T03:57:06;5.5;65.4
78463;SHT31;67756;51.982;5.648;2024-01-07T03:59:34;5.5;65.2
78463;SHT31;67756;51.982;5.648;2024-01-07T04:02:03;5.5;65.6
78463;SHT31;67756;51.982;5.648;2024-01-07T04:04:32;5.5;65.3
78463;SHT31;67756;51.982;5.648;2024-01-07T04:07:00;5.4;65.7
78463;SHT31;67756;51.982;5.648;2024-01-07T04:09:29;5.4;65.6
78463;SHT31;67756;51.982;5.648;2024-01-07T04:11:58;5.4;66.2
78463;SHT31;67756;51.982;5.648;2024-01-07T04:14:27;5.4;67.1
78463;SHT31;67756;51.982;5.648;2024-01-07T04:16:55;5.4;66.3
78463;SHT31;67756;51.982;5.648;2024-01-07T04:19:24;5.4;66.0
78463;SHT31;67756;51.982;5.648;2024-01-07T04:21:53;5.4;65.9
78463;SHT31;67756;51.982;5.648;2024-01-07T04:24:22;5.4;65.0
78463;SHT31;67756;51.982;5.648;2024-01-07T04:26:50;5.4;65.0
78463;SHT31;67756;51.982;5.648;2024-01-07T04:29:19;5.4;65.3
78463;SHT31;67756;51.982;5.648;2024-01-07T04:31:48;5.3;64.9
78463;SHT31;67756;51.982;5.648;2024-01-07T04:34:16;5.3;65.0
78463;SHT31;67756;51.982;5.648;2024-01-07T04:36:45;5.3;65.8
78463;SHT31;67756;51.982;5.648;2024-01-07T04:39:14;5.2;66.2
78463;SHT31;67756;51.982;5.648;2024-01-07T04:41:42;5.2;65.6
78463;SHT31;67756;51.982;5.648;2024-01-07T04:44:11;5.2;65.9
78463;SHT31;67756;51.982;5.648;2024-01-07T04:46:40;5.1;65.4
78463;SHT31;67756;51.982;5.648;2024-01-07T04:49:08;5.1;65.6
78463;SHT31;67756;51.982;5.648;2024-01-07T04:51:37;5.1;65.8
78463;SHT31;67756;51.982;5.648;2024-01-07T04:54:06;5.1;66.0
78463;SHT31;67756;51.982;5.648;2024-01-07T04:56:34;5.1;65.8
78463;SHT31;67756;51.982;5.648;2024-01-07T04:59:03;5.1;65.4
78463;SHT31;67756;51.982;5.648;2024-01-07T05:01:32;5.1;64.7
78463;SHT31;67756;51.982;5.648;2024-01-07T05:04:01;5.2;65.2
78463;SHT31;67756;51.982;5.648;2024-01-07T05:06:30;5.2;65.2
78463;SHT31;67756;51.982;5.648;2024-01-07T05:08:59;5.2;65.0
78463;SHT31;67756;51.982;5.648;2024-01-07T05:11:27;5.2;65.3
78463;SHT31;67756;51.982;5.648;2024-01-07T05:13:56;5.2;65.8
78463;SHT31;67756;51.982;5.648;2024-01-07T05:16:24;5.2;65.1
78463;SHT31;67756;51.982;5.648;2024-01-07T05:18:53;5.3;65.4
78463;SHT31;67756;51.982;5.648;2024-01-07T05:21:22;5.4;64.5
78463;SHT31;67756;51.982;5.648;2024-01-07T05:23:50;5.4;64.3
78463;SHT31;67756;51.982;5.648;2024-01-07T05:26:19;5.4;63.5
78463;SHT31;67756;51.982;5.648;2024-01-07T05:28:47;5.4;63.2
78463;SHT31;67756;51.982;5.648;2024-01-07T05:31:18;5.5;63.2
78463;SHT31;67756;51.982;5.648;2024-01-07T05:33:47;5.5;62.9
78463;SHT31;67756;51.982;5.648;2024-01-07T05:36:15;5.5;62.4
78463;SHT31;67756;51.982;5.648;2024-01-07T05:38:44;5.5;62.5
78463;SHT31;67756;51.982;5.648;2024-01-07T05:41:14;5.5;62.9
78463;SHT31;67756;51.982;5.648;2024-01-07T05:43:43;5.5;62.8
78463;SHT31;67756;51.982;5.648;2024-01-07T05:46:12;5.5;62.3
78463;SHT31;67756;51.982;5.648;2024-01-07T05:48:45;5.5;61.7
78463;SHT31;67756;51.982;5.648;2024-01-07T05:51:14;5.5;62.9
78463;SHT31;67756;51.982;5.648;2024-01-07T05:53:45;5.6;62.9
78463;SHT31;67756;51.982;5.648;2024-01-07T05:56:16;5.6;61.3
78463;SHT31;67756;51.982;5.648;2024-01-07T05:58:45;5.6;61.1
78463;SHT31;67756;51.982;5.648;2024-01-07T06:01:18;5.6;61.0
78463;SHT31;67756;51.982;5.648;2024-01-07T06:03:48;5.6;60.9
78463;SHT31;67756;51.982;5.648;2024-01-07T06:06:16;5.6;60.4
78463;SHT31;67756;51.982;5.648;2024-01-07T06:08:45;5.6;60.9
78463;SHT31;67756;51.982;5.648;2024-01-07T06:11:14;5.6;60.8
78463;SHT31;67756;51.982;5.648;2024-01-07T06:13:47;5.6;60.2
78463;SHT31;67756;51.982;5.648;2024-01-07T06:16:15;5.5;61.0
78463;SHT31;67756;51.982;5.648;2024-01-07T06:18:46;5.5;60.1
78463;SHT31;67756;51.982;5.648;2024-01-07T06:21:15;5.4;61.2
78463;SHT31;67756;51.982;5.648;2024-01-07T06:23:43;5.4;60.5
78463;SHT31;67756;51.982;5.648;2024-01-07T06:26:12;5.4;60.8
78463;SHT31;67756;51.982;5.648;2024-01-07T06:28:43;5.3;60.3
78463;SHT31;67756;51.982;5.648;2024-01-07T06:31:12;5.3;60.4
78463;SHT31;67756;51.982;5.648;2024-01-07T06:33:40;5.3;61.0
78463;SHT31;67756;51.982;5.648;2024-01-07T06:36:09;5.2;61.2
78463;SHT31;67756;51.982;5.648;2024-01-07T06:38:38;5.2;61.1
78463;SHT31;67756;51.982;5.648;2024-01-07T06:41:07;5.2;61.4
78463;SHT31;67756;51.982;5.648;2024-01-07T06:43:37;5.2;62.0
78463;SHT31;67756;51.982;5.648;2024-01-07T06:46:06;5.2;61.0
78463;SHT31;67756;51.982;5.648;2024-01-07T06:48:35;5.2;61.3
78463;SHT31;67756;51.982;5.648;2024-01-07T06:51:04;5.3;61.5
78463;SHT31;67756;51.982;5.648;2024-01-07T06:53:32;5.3;60.6
78463;SHT31;67756;51.982;5.648;2024-01-07T06:56:01;5.3;60.8
78463;SHT31;67756;51.982;5.648;2024-01-07T06:58:30;5.3;61.1
78463;SHT31;67756;51.982;5.648;2024-01-07T07:00:59;5.3;61.2
78463;SHT31;67756;51.982;5.648;2024-01-07T07:03:27;5.3;61.0
78463;SHT31;67756;51.982;5.648;2024-01-07T07:05:56;5.3;60.7
78463;SHT31;67756;51.982;5.648;2024-01-07T07:08:25;5.3;60.3
78463;SHT31;67756;51.982;5.648;2024-01-07T07:10:53;5.2;61.4
78463;SHT31;67756;51.982;5.648;2024-01-07T07:13:22;5.2;61.3
78463;SHT31;67756;51.982;5.648;2024-01-07T07:15:51;5.2;61.5
78463;SHT31;67756;51.982;5.648;2024-01-07T07:18:19;5.1;61.9
78463;SHT31;67756;51.982;5.648;2024-01-07T07:20:48;5.1;61.5
78463;SHT31;67756;51.982;5.648;2024-01-07T07:23:17;5.2;61.8
78463;SHT31;67756;51.982;5.648;2024-01-07T07:25:50;5.3;61.3
78463;SHT31;67756;51.982;5.648;2024-01-07T07:28:21;5.3;60.1
78463;SHT31;67756;51.982;5.648;2024-01-07T07:30:51;5.4;59.8
78463;SHT31;67756;51.982;5.648;2024-01-07T07:33:20;5.4;60.0
78463;SHT31;67756;51.982;5.648;2024-01-07T07:35:50;5.4;59.6
78463;SHT31;67756;51.982;5.648;2024-01-07T07:38:19;5.4;60.0
78463;SHT31;67756;51.982;5.648;2024-01-07T07:40:48;5.5;59.3
78463;SHT31;67756;51.982;5.648;2024-01-07T07:43:19;5.5;59.1
78463;SHT31;67756;51.982;5.648;2024-01-07T07:45:48;5.5;58.9
78463;SHT31;67756;51.982;5.648;2024-01-07T07:48:18;5.5;59.3
78463;SHT31;67756;51.982;5.648;2024-01-07T07:50:47;5.5;59.0
78463;SHT31;67756;51.982;5.648;2024-01-07T07:53:16;5.5;59.2
78463;SHT31;67756;51.982;5.648;2024-01-07T07:55:45;5.4;59.3
78463;SHT31;67756;51.982;5.648;2024-01-07T07:58:14;5.4;59.2
78463;SHT31;67756;51.982;5.648;2024-01-07T08:00:43;5.4;58.9
78463;SHT31;67756;51.982;5.648;2024-01-07T08:03:11;5.4;59.5
78463;SHT31;67756;51.982;5.648;2024-01-07T08:05:40;5.3;59.8
78463;SHT31;67756;51.982;5.648;2024-01-07T08:08:09;5.3;59.3
78463;SHT31;67756;51.982;5.648;2024-01-07T08:10:38;5.2;60.1
78463;SHT31;67756;51.982;5.648;2024-01-07T08:13:06;5.2;60.0
78463;SHT31;67756;51.982;5.648;2024-01-07T08:15:35;5.2;60.3
78463;SHT31;67756;51.982;5.648;2024-01-07T08:18:05;5.1;59.6
78463;SHT31;67756;51.982;5.648;2024-01-07T08:20:34;5.1;59.0
78463;SHT31;67756;51.982;5.648;2024-01-07T08:23:05;5.0;59.4
78463;SHT31;67756;51.982;5.648;2024-01-07T08:25:34;4.9;60.0
78463;SHT31;67756;51.982;5.648;2024-01-07T08:28:03;4.9;59.7
78463;SHT31;67756;51.982;5.648;2024-01-07T08:30:31;4.8;60.0
78463;SHT31;67756;51.982;5.648;2024-01-07T08:33:01;4.8;60.9
78463;SHT31;67756;51.982;5.648;2024-01-07T08:35:29;4.7;60.7
78463;SHT31;67756;51.982;5.648;2024-01-07T08:37:58;4.7;61.0
78463;SHT31;67756;51.982;5.648;2024-01-07T08:40:27;4.7;61.2
78463;SHT31;67756;51.982;5.648;2024-01-07T08:42:55;4.7;61.3
78463;SHT31;67756;51.982;5.648;2024-01-07T08:45:24;4.7;61.0
78463;SHT31;67756;51.982;5.648;2024-01-07T08:47:52;4.6;61.0
78463;SHT31;67756;51.982;5.648;2024-01-07T08:50:21;4.6;61.2
78463;SHT31;67756;51.982;5.648;2024-01-07T08:52:50;4.6;60.5
78463;SHT31;67756;51.982;5.648;2024-01-07T08:55:19;4.6;61.1
78463;SHT31;67756;51.982;5.648;2024-01-07T08:57:47;4.6;61.2
78463;SHT31;67756;51.982;5.648;2024-01-07T09:00:16;4.6;61.1
78463;SHT31;67756;51.982;5.648;2024-01-07T09:02:46;4.6;60.8
78463;SHT31;67756;51.982;5.648;2024-01-07T09:05:17;4.5;61.1
78463;SHT31;67756;51.982;5.648;2024-01-07T09:07:47;4.5;61.5
78463;SHT31;67756;51.982;5.648;2024-01-07T09:10:16;4.5;61.5
78463;SHT31;67756;51.982;5.648;2024-01-07T09:12:49;4.5;61.6
78463;SHT31;67756;51.982;5.648;2024-01-07T09:15:20;4.5;62.0
78463;SHT31;67756;51.982;5.648;2024-01-07T09:17:49;4.5;61.5
78463;SHT31;67756;51.982;5.648;2024-01-07T09:20:17;4.5;61.4
78463;SHT31;67756;51.982;5.648;2024-01-07T09:22:46;4.5;61.9
78463;SHT31;67756;51.982;5.648;2024-01-07T09:25:15;4.5;60.7
78463;SHT31;67756;51.982;5.648;2024-01-07T09:27:43;4.5;60.1
78463;SHT31;67756;51.982;5.648;2024-01-07T09:30:13;4.5;60.7
78463;SHT31;67756;51.982;5.648;2024-01-07T09:32:46;4.5;60.7
78463;SHT31;67756;51.982;5.648;2024-01-07T09:35:14;4.5;60.4
78463;SHT31;67756;51.982;5.648;2024-01-07T09:37:43;4.5;60.2
78463;SHT31;67756;51.982;5.648;2024-01-07T09:40:17;4.5;60.0
78463;SHT31;67756;51.982;5.648;2024-01-07T09:42:47;4.5;59.9
78463;SHT31;67756;51.982;5.648;2024-01-07T09:45:16;4.5;60.8
78463;SHT31;67756;51.982;5.648;2024-01-07T09:47:46;4.5;60.2
78463;SHT31;67756;51.982;5.648;2024-01-07T09:50:16;4.5;59.9
78463;SHT31;67756;51.982;5.648;2024-01-07T09:52:46;4.5;60.7
78463;SHT31;67756;51.982;5.648;2024-01-07T09:55:26;4.6;60.0
78463;SHT31;67756;51.982;5.648;2024-01-07T09:57:56;4.6;59.8
78463;SHT31;67756;51.982;5.648;2024-01-07T10:00:25;4.6;60.2
78463;SHT31;67756;51.982;5.648;2024-01-07T10:02:55;4.7;60.9
78463;SHT31;67756;51.982;5.648;2024-01-07T10:05:24;4.7;59.8
78463;SHT31;67756;51.982;5.648;2024-01-07T10:07:53;4.7;58.9
78463;SHT31;67756;51.982;5.648;2024-01-07T10:10:23;4.7;58.4
78463;SHT31;67756;51.982;5.648;2024-01-07T10:12:53;4.7;58.9
78463;SHT31;67756;51.982;5.648;2024-01-07T10:15:23;4.7;59.0
78463;SHT31;67756;51.982;5.648;2024-01-07T10:17:54;4.7;59.9
78463;SHT31;67756;51.982;5.648;2024-01-07T10:20:23;4.7;58.6
78463;SHT31;67756;51.982;5.648;2024-01-07T10:22:52;4.7;58.7
78463;SHT31;67756;51.982;5.648;2024-01-07T10:25:21;4.7;59.5
78463;SHT31;67756;51.982;5.648;2024-01-07T10:27:51;4.8;58.1
78463;SHT31;67756;51.982;5.648;2024-01-07T10:30:20;4.8;58.7
78463;SHT31;67756;51.982;5.648;2024-01-07T10:32:49;4.8;58.7
78463;SHT31;67756;51.982;5.648;2024-01-07T10:35:21;4.8;57.9
78463;SHT31;67756;51.982;5.648;2024-01-07T10:37:50;4.8;58.3
78463;SHT31;67756;51.982;5.648;2024-01-07T10:40:19;4.8;57.6
78463;SHT31;67756;51.982;5.648;2024-01-07T10:42:48;4.8;57.0
78463;SHT31;67756;51.982;5.648;2024-01-07T10:45:18;4.8;57.3
78463;SHT31;67756;51.982;5.648;2024-01-07T10:47:49;4.8;57.6
78463;SHT31;67756;51.982;5.648;2024-01-07T10:50:19;4.7;56.7
78463;SHT31;67756;51.982;5.648;2024-01-07T10:52:49;4.7;56.8
78463;SHT31;67756;51.982;5.648;2024-01-07T10:55:22;4.7;57.3
78463;SHT31;67756;51.982;5.648;2024-01-07T10:57:56;4.7;56.6
78463;SHT31;67756;51.982;5.648;2024-01-07T11:00:26;4.7;56.5
78463;SHT31;67756;51.982;5.648;2024-01-07T11:03:04;4.7;55.7
78463;SHT31;67756;51.982;5.648;2024-01-07T11:05:42;4.7;57.0
78463;SHT31;67756;51.982;5.648;2024-01-07T11:08:22;4.7;56.9
78463;SHT31;67756;51.982;5.648;2024-01-07T11:10:57;4.7;57.0
78463;SHT31;67756;51.982;5.648;2024-01-07T11:13:38;4.7;56.2
78463;SHT31;67756;51.982;5.648;2024-01-07T11:16:08;4.7;56.4
78463;SHT31;67756;51.982;5.648;2024-01-07T11:18:49;4.7;56.1
78463;SHT31;67756;51.982;5.648;2024-01-07T11:21:23;4.8;56.6
78463;SHT31;67756;51.982;5.648;2024-01-07T11:23:52;4.8;56.8
78463;SHT31;67756;51.982;5.648;2024-01-07T11:26:22;4.8;56.7
78463;SHT31;67756;51.982;5.648;2024-01-07T11:28:52;4.8;57.1
78463;SHT31;67756;51.982;5.648;2024-01-07T11:31:44;4.9;56.6
78463;SHT31;67756;51.982;5.648;2024-01-07T11:34:39;4.9;56.0
78463;SHT31;67756;51.982;5.648;2024-01-07T11:37:11;4.9;55.6
78463;SHT31;67756;51.982;5.648;2024-01-07T11:39:42;4.9;55.8
78463;SHT31;67756;51.982;5.648;2024-01-07T11:42:14;4.9;54.9
78463;SHT31;67756;51.982;5.648;2024-01-07T11:44:47;5.0;55.7
78463;SHT31;67756;51.982;5.648;2024-01-07T11:47:18;5.1;55.3
78463;SHT31;67756;51.982;5.648;2024-01-07T11:49:48;5.3;54.1
78463;SHT31;67756;51.982;5.648;2024-01-07T11:52:18;5.4;53.4
78463;SHT31;67756;51.982;5.648;2024-01-07T11:54:48;5.5;55.0
78463;SHT31;67756;51.982;5.648;2024-01-07T11:57:17;5.7;54.5
78463;SHT31;67756;51.982;5.648;2024-01-07T11:59:46;6.1;53.4
78463;SHT31;67756;51.982;5.648;2024-01-07T12:02:14;6.7;51.0
78463;SHT31;67756;51.982;5.648;2024-01-07T12:04:45;7.2;48.5
78463;SHT31;67756;51.982;5.648;2024-01-07T12:07:16;7.7;48.1
78463;SHT31;67756;51.982;5.648;2024-01-07T12:09:45;8.2;46.8
78463;SHT31;67756;51.982;5.648;2024-01-07T12:12:14;8.6;45.0
78463;SHT31;67756;51.982;5.648;2024-01-07T12:14:42;8.9;44.7
78463;SHT31;67756;51.982;5.648;2024-01-07T12:17:11;9.2;43.2
78463;SHT31;67756;51.982;5.648;2024-01-07T12:19:40;9.5;42.0
78463;SHT31;67756;51.982;5.648;2024-01-07T12:22:10;9.6;41.8
78463;SHT31;67756;51.982;5.648;2024-01-07T12:24:39;9.8;41.3
78463;SHT31;67756;51.982;5.648;2024-01-07T12:27:08;9.9;40.8
78463;SHT31;67756;51.982;5.648;2024-01-07T12:29:36;10.1;40.2
78463;SHT31;67756;51.982;5.648;2024-01-07T12:32:06;10.2;39.0
78463;SHT31;67756;51.982;5.648;2024-01-07T12:34:37;10.3;38.3
78463;SHT31;67756;51.982;5.648;2024-01-07T12:37:14;10.4;38.0
78463;SHT31;67756;51.982;5.648;2024-01-07T12:39:43;10.4;38.9
78463;SHT31;67756;51.982;5.648;2024-01-07T12:42:11;10.5;39.0
78463;SHT31;67756;51.982;5.648;2024-01-07T12:44:42;10.5;38.2
78463;SHT31;67756;51.982;5.648;2024-01-07T12:47:11;10.6;39.0
78463;SHT31;67756;51.982;5.648;2024-01-07T12:49:40;10.6;39.1
78463;SHT31;67756;51.982;5.648;2024-01-07T12:52:09;10.7;39.4
78463;SHT31;67756;51.982;5.648;2024-01-07T12:54:38;10.7;40.1
78463;SHT31;67756;51.982;5.648;2024-01-07T12:57:09;10.7;39.0
78463;SHT31;67756;51.982;5.648;2024-01-07T12:59:37;10.7;39.7
78463;SHT31;67756;51.982;5.648;2024-01-07T13:02:06;10.8;38.8
78463;SHT31;67756;51.982;5.648;2024-01-07T13:04:36;10.7;38.2
78463;SHT31;67756;51.982;5.648;2024-01-07T13:07:04;10.6;38.9
78463;SHT31;67756;51.982;5.648;2024-01-07T13:09:33;10.3;38.5
78463;SHT31;67756;51.982;5.648;2024-01-07T13:12:02;10.0;39.9
78463;SHT31;67756;51.982;5.648;2024-01-07T13:14:31;9.7;39.4
78463;SHT31;67756;51.982;5.648;2024-01-07T13:16:59;9.4;39.9
78463;SHT31;67756;51.982;5.648;2024-01-07T13:19:29;9.0;41.0
78463;SHT31;67756;51.982;5.648;2024-01-07T13:21:57;8.6;40.5
78463;SHT31;67756;51.982;5.648;2024-01-07T13:24:27;8.3;41.1
78463;SHT31;67756;51.982;5.648;2024-01-07T13:26:56;7.9;41.7
78463;SHT31;67756;51.982;5.648;2024-01-07T13:29:25;7.6;42.9
78463;SHT31;67756;51.982;5.648;2024-01-07T13:31:53;7.3;43.6
78463;SHT31;67756;51.982;5.648;2024-01-07T13:34:22;7.2;44.4
78463;SHT31;67756;51.982;5.648;2024-01-07T13:36:50;7.1;44.2
78463;SHT31;67756;51.982;5.648;2024-01-07T13:39:19;7.0;44.9
78463;SHT31;67756;51.982;5.648;2024-01-07T13:41:49;6.9;44.0
78463;SHT31;67756;51.982;5.648;2024-01-07T13:44:18;6.9;43.8
78463;SHT31;67756;51.982;5.648;2024-01-07T13:46:47;6.9;45.0
78463;SHT31;67756;51.982;5.648;2024-01-07T13:49:20;6.8;43.8
78463;SHT31;67756;51.982;5.648;2024-01-07T13:51:49;6.7;45.0
78463;SHT31;67756;51.982;5.648;2024-01-07T13:54:17;6.6;44.6
78463;SHT31;67756;51.982;5.648;2024-01-07T13:56:46;6.5;45.1
78463;SHT31;67756;51.982;5.648;2024-01-07T13:59:14;6.4;45.3
78463;SHT31;67756;51.982;5.648;2024-01-07T14:01:44;6.3;45.5
78463;SHT31;67756;51.982;5.648;2024-01-07T14:04:12;6.2;45.2
78463;SHT31;67756;51.982;5.648;2024-01-07T14:06:41;6.2;45.5
78463;SHT31;67756;51.982;5.648;2024-01-07T14:09:10;6.1;46.7
78463;SHT31;67756;51.982;5.648;2024-01-07T14:11:39;6.0;46.1
78463;SHT31;67756;51.982;5.648;2024-01-07T14:14:09;6.0;45.9
78463;SHT31;67756;51.982;5.648;2024-01-07T14:16:38;6.0;46.3
78463;SHT31;67756;51.982;5.648;2024-01-07T14:19:07;5.9;47.1
78463;SHT31;67756;51.982;5.648;2024-01-07T14:21:35;5.9;46.7
78463;SHT31;67756;51.982;5.648;2024-01-07T14:24:04;5.9;46.9
78463;SHT31;67756;51.982;5.648;2024-01-07T14:26:33;5.9;46.9
78463;SHT31;67756;51.982;5.648;2024-01-07T14:29:02;5.9;47.0
78463;SHT31;67756;51.982;5.648;2024-01-07T14:31:31;5.9;47.5
78463;SHT31;67756;51.982;5.648;2024-01-07T14:33:59;5.8;47.1
78463;SHT31;67756;51.982;5.648;2024-01-07T14:36:29;5.8;47.2
78463;SHT31;67756;51.982;5.648;2024-01-07T14:38:58;5.8;46.5
78463;SHT31;67756;51.982;5.648;2024-01-07T14:41:26;5.7;47.4
78463;SHT31;67756;51.982;5.648;2024-01-07T14:43:55;5.6;47.2
78463;SHT31;67756;51.982;5.648;2024-01-07T14:46:23;5.5;47.2
78463;SHT31;67756;51.982;5.648;2024-01-07T14:48:52;5.5;47.6
78463;SHT31;67756;51.982;5.648;2024-01-07T14:51:20;5.4;48.4
78463;SHT31;67756;51.982;5.648;2024-01-07T14:53:49;5.4;48.0
78463;SHT31;67756;51.982;5.648;2024-01-07T14:56:18;5.3;49.2
78463;SHT31;67756;51.982;5.648;2024-01-07T14:58:48;5.3;49.0
78463;SHT31;67756;51.982;5.648;2024-01-07T15:01:17;5.3;49.3
78463;SHT31;67756;51.982;5.648;2024-01-07T15:03:47;5.3;49.7
78463;SHT31;67756;51.982;5.648;2024-01-07T15:06:16;5.3;48.9
78463;SHT31;67756;51.982;5.648;2024-01-07T15:08:46;5.3;50.0
78463;SHT31;67756;51.982;5.648;2024-01-07T15:11:17;5.3;50.1
78463;SHT31;67756;51.982;5.648;2024-01-07T15:13:46;5.3;49.4
78463;SHT31;67756;51.982;5.648;2024-01-07T15:16:16;5.3;49.7
78463;SHT31;67756;51.982;5.648;2024-01-07T15:18:45;5.3;49.2
78463;SHT31;67756;51.982;5.648;2024-01-07T15:21:16;5.3;50.4
78463;SHT31;67756;51.982;5.648;2024-01-07T15:23:44;5.3;48.5
78463;SHT31;67756;51.982;5.648;2024-01-07T15:26:13;5.3;49.4
78463;SHT31;67756;51.982;5.648;2024-01-07T15:28:42;5.3;49.4
78463;SHT31;67756;51.982;5.648;2024-01-07T15:31:10;5.2;51.1
78463;SHT31;67756;51.982;5.648;2024-01-07T15:33:39;5.2;49.7
78463;SHT31;67756;51.982;5.648;2024-01-07T15:36:08;5.1;50.0
78463;SHT31;67756;51.982;5.648;2024-01-07T15:38:39;5.1;49.0
78463;SHT31;67756;51.982;5.648;2024-01-07T15:41:07;5.1;50.3
78463;SHT31;67756;51.982;5.648;2024-01-07T15:43:36;5.0;51.0
78463;SHT31;67756;51.982;5.648;2024-01-07T15:46:05;5.0;50.5
78463;SHT31;67756;51.982;5.648;2024-01-07T15:48:34;5.0;50.9
78463;SHT31;67756;51.982;5.648;2024-01-07T15:51:02;5.0;51.5
78463;SHT31;67756;51.982;5.648;2024-01-07T15:53:32;5.0;51.5
78463;SHT31;67756;51.982;5.648;2024-01-07T15:56:02;4.9;51.0
78463;SHT31;67756;51.982;5.648;2024-01-07T15:58:32;4.9;51.3
78463;SHT31;67756;51.982;5.648;2024-01-07T16:01:03;4.9;50.6
78463;SHT31;67756;51.982;5.648;2024-01-07T16:03:32;4.9;51.6
78463;SHT31;67756;51.982;5.648;2024-01-07T16:06:01;4.9;52.2
78463;SHT31;67756;51.982;5.648;2024-01-07T16:08:30;4.8;52.3
78463;SHT31;67756;51.982;5.648;2024-01-07T16:10:59;4.8;52.2
78463;SHT31;67756;51.982;5.648;2024-01-07T16:13:31;4.8;53.5
78463;SHT31;67756;51.982;5.648;2024-01-07T16:15:59;4.8;53.2
78463;SHT31;67756;51.982;5.648;2024-01-07T16:18:28;4.8;54.1
78463;SHT31;67756;51.982;5.648;2024-01-07T16:20:57;4.9;53.2
78463;SHT31;67756;51.982;5.648;2024-01-07T16:23:26;4.9;51.7
78463;SHT31;67756;51.982;5.648;2024-01-07T16:25:58;4.9;52.0
78463;SHT31;67756;51.982;5.648;2024-01-07T16:28:26;5.0;51.8
78463;SHT31;67756;51.982;5.648;2024-01-07T16:30:55;5.0;52.8